createdAt,value
2019-02-07T00:00:42.790Z,16.30
2019-02-07T00:01:42.783Z,17.20
2019-02-07T00:02:42.777Z,16.40
2019-02-07T00:03:42.761Z,16.80
2019-02-07T00:04:42.751Z,16.60
2019-02-07T00:05:42.743Z,16.40
2019-02-07T00:06:42.730Z,16.70
2019-02-07T00:07:42.725Z,16.60
2019-02-07T00:08:42.712Z,17.50
2019-02-07T00:09:42.703Z,15.50
2019-02-07T00:10:42.698Z,16.50
2019-02-07T00:11:42.687Z,16.60
2019-02-07T00:12:42.674Z,17.20
2019-02-07T00:13:42.675Z,15.00
2019-02-07T00:14:42.659Z,16.90
2019-02-07T00:15:42.654Z,17.30
2019-02-07T00:16:42.632Z,17.40
2019-02-07T00:17:42.634Z,16.90
2019-02-07T00:18:42.623Z,16.50
2019-02-07T00:19:42.613Z,18.00
2019-02-07T00:20:42.608Z,17.00
2019-02-07T00:21:42.586Z,15.90
2019-02-07T00:22:42.590Z,15.50
2019-02-07T00:23:42.579Z,17.60
2019-02-07T00:24:43.301Z,16.80
2019-02-07T00:25:42.559Z,15.80
2019-02-07T00:26:42.551Z,16.90
2019-02-07T00:27:42.539Z,15.40
2019-02-07T00:28:42.535Z,15.90
2019-02-07T00:29:42.520Z,16.50
2019-02-07T00:30:42.515Z,16.50
2019-02-07T00:31:42.505Z,17.00
2019-02-07T00:32:42.492Z,16.00
2019-02-07T00:33:42.490Z,16.00
2019-02-07T00:34:42.471Z,15.90
2019-02-07T00:35:42.477Z,16.80
2019-02-07T00:36:42.457Z,15.70
2019-02-07T00:37:42.447Z,15.20
2019-02-07T00:38:42.530Z,15.20
2019-02-07T00:39:42.430Z,16.60
2019-02-07T00:40:42.424Z,15.50
2019-02-07T00:41:42.405Z,16.20
2019-02-07T00:42:42.400Z,17.20
2019-02-07T00:43:42.399Z,16.60
2019-02-07T00:44:50.440Z,15.50
2019-02-07T00:45:42.375Z,17.20
2019-02-07T00:46:42.362Z,15.90
2019-02-07T00:47:42.356Z,15.90
2019-02-07T00:48:42.347Z,15.70
2019-02-07T00:49:42.341Z,17.50
2019-02-07T00:50:42.332Z,14.70
2019-02-07T00:51:42.316Z,16.60
2019-02-07T00:52:42.309Z,15.40
2019-02-07T00:53:42.301Z,15.20
2019-02-07T00:54:42.288Z,15.30
2019-02-07T00:55:42.284Z,15.40
2019-02-07T00:56:42.271Z,15.20
2019-02-07T00:57:42.266Z,16.50
2019-02-07T00:58:42.254Z,15.00
2019-02-07T00:59:42.246Z,14.80
2019-02-07T01:00:42.236Z,14.10
2019-02-07T01:01:42.227Z,14.80
2019-02-07T01:02:42.215Z,15.80
2019-02-07T01:03:42.209Z,16.00
2019-02-07T01:04:42.208Z,15.40
2019-02-07T01:05:42.194Z,13.90
2019-02-07T01:06:42.180Z,14.60
2019-02-07T01:07:42.173Z,14.80
2019-02-07T01:08:42.160Z,15.20
2019-02-07T01:09:42.156Z,15.20
2019-02-07T01:10:42.144Z,15.10
2019-02-07T01:11:42.134Z,14.40
2019-02-07T01:12:42.129Z,14.50
2019-02-07T01:13:42.117Z,14.90
2019-02-07T01:14:42.107Z,15.10
2019-02-07T01:15:42.097Z,14.20
2019-02-07T01:16:42.087Z,15.70
2019-02-07T01:17:42.077Z,15.80
2019-02-07T01:18:42.074Z,14.30
2019-02-07T01:19:42.059Z,14.40
2019-02-07T01:20:42.048Z,14.90
2019-02-07T01:21:42.136Z,14.80
2019-02-07T01:22:42.030Z,13.80
2019-02-07T01:23:42.022Z,14.80
2019-02-07T01:24:42.011Z,13.20
2019-02-07T01:25:42.002Z,15.20
2019-02-07T01:26:41.995Z,13.00
2019-02-07T01:27:41.983Z,12.90
2019-02-07T01:28:41.976Z,14.10
2019-02-07T01:29:41.966Z,14.10
2019-02-07T01:30:41.956Z,14.60
2019-02-07T01:31:41.946Z,12.80
2019-02-07T01:32:41.935Z,13.90
2019-02-07T01:33:41.930Z,14.20
2019-02-07T01:34:41.919Z,14.20
2019-02-07T01:35:41.911Z,13.80
2019-02-07T01:36:41.899Z,13.60
2019-02-07T01:37:41.894Z,13.20
2019-02-07T01:38:41.880Z,12.90
2019-02-07T01:39:41.877Z,14.30
2019-02-07T01:40:41.862Z,14.50
2019-02-07T01:41:41.856Z,13.30
2019-02-07T01:42:41.844Z,13.50
2019-02-07T01:43:41.834Z,13.20
2019-02-07T01:44:41.822Z,14.30
2019-02-07T01:45:41.814Z,12.90
2019-02-07T01:46:41.807Z,14.40
2019-02-07T01:47:41.797Z,13.30
2019-02-07T01:48:41.786Z,13.60
2019-02-07T01:49:41.781Z,13.70
2019-02-07T01:50:41.768Z,13.50
2019-02-07T01:51:41.760Z,14.70
2019-02-07T01:52:41.751Z,15.60
2019-02-07T01:53:41.742Z,15.50
2019-02-07T01:54:41.729Z,15.00
2019-02-07T01:55:41.720Z,13.30
2019-02-07T01:56:41.712Z,13.40
2019-02-07T01:57:41.703Z,13.40
2019-02-07T01:58:41.692Z,13.20
2019-02-07T01:59:41.684Z,14.50
2019-02-07T02:00:41.677Z,13.10
2019-02-07T02:01:41.662Z,13.10
2019-02-07T02:02:41.653Z,13.20
2019-02-07T02:03:41.646Z,13.00
2019-02-07T02:04:41.642Z,13.40
2019-02-07T02:05:41.625Z,12.40
2019-02-07T02:06:41.616Z,12.80
2019-02-07T02:07:41.605Z,13.20
2019-02-07T02:08:41.597Z,13.40
2019-02-07T02:09:41.585Z,13.20
2019-02-07T02:10:41.577Z,12.80
2019-02-07T02:11:41.565Z,12.80
2019-02-07T02:12:41.557Z,13.00
2019-02-07T02:13:41.545Z,14.80
2019-02-07T02:14:41.541Z,16.90
2019-02-07T02:15:41.526Z,17.50
2019-02-07T02:16:41.520Z,16.30
2019-02-07T02:17:41.508Z,15.70
2019-02-07T02:18:41.497Z,18.30
2019-02-07T02:19:41.489Z,15.90
2019-02-07T02:20:41.480Z,15.20
2019-02-07T02:21:41.468Z,15.80
2019-02-07T02:22:41.459Z,14.40
2019-02-07T02:23:41.453Z,14.50
2019-02-07T02:24:41.441Z,13.70
2019-02-07T02:25:41.430Z,13.00
2019-02-07T02:26:41.512Z,15.10
2019-02-07T02:27:41.412Z,13.70
2019-02-07T02:28:41.400Z,13.70
2019-02-07T02:29:41.390Z,15.60
2019-02-07T02:30:41.380Z,13.50
2019-02-07T02:31:41.369Z,13.00
2019-02-07T02:32:41.359Z,13.40
2019-02-07T02:33:41.349Z,13.40
2019-02-07T02:34:41.340Z,13.80
2019-02-07T02:35:41.330Z,13.10
2019-02-07T02:36:41.318Z,13.20
2019-02-07T02:37:41.313Z,15.10
2019-02-07T02:38:41.297Z,13.30
2019-02-07T02:39:41.293Z,12.70
2019-02-07T02:40:41.282Z,13.90
2019-02-07T02:41:41.273Z,14.80
2019-02-07T02:42:41.266Z,13.60
2019-02-07T02:43:41.253Z,13.70
2019-02-07T02:44:41.241Z,13.80
2019-02-07T02:45:41.232Z,13.50
2019-02-07T02:46:41.220Z,13.80
2019-02-07T02:47:41.209Z,12.30
2019-02-07T02:48:41.195Z,12.80
2019-02-07T02:49:41.190Z,14.00
2019-02-07T02:50:41.182Z,12.90
2019-02-07T02:51:41.177Z,13.80
2019-02-07T02:52:41.163Z,12.80
2019-02-07T02:53:41.155Z,12.30
2019-02-07T02:54:41.144Z,14.10
2019-02-07T02:55:41.135Z,14.20
2019-02-07T02:56:41.124Z,12.40
2019-02-07T02:57:41.114Z,12.30
2019-02-07T02:58:41.105Z,13.80
2019-02-07T02:59:41.094Z,11.80
2019-02-07T03:00:41.082Z,13.40
2019-02-07T03:01:41.075Z,13.60
2019-02-07T03:02:41.064Z,13.70
2019-02-07T03:03:41.053Z,12.80
2019-02-07T03:04:41.040Z,12.70
2019-02-07T03:05:41.033Z,12.30
2019-02-07T03:06:41.018Z,13.30
2019-02-07T03:07:41.014Z,13.70
2019-02-07T03:08:41.008Z,12.60
2019-02-07T03:09:40.996Z,12.50
2019-02-07T03:10:40.984Z,13.70
2019-02-07T03:11:40.980Z,14.80
2019-02-07T03:12:40.964Z,13.00
2019-02-07T03:13:40.953Z,12.20
2019-02-07T03:14:40.947Z,15.10
2019-02-07T03:15:49.259Z,12.50
2019-02-07T03:16:40.923Z,14.20
2019-02-07T03:17:40.916Z,13.10
2019-02-07T03:18:40.904Z,13.70
2019-02-07T03:19:40.894Z,12.50
2019-02-07T03:20:40.883Z,13.30
2019-02-07T03:21:40.872Z,12.20
2019-02-07T03:22:40.864Z,12.70
2019-02-07T03:23:40.853Z,12.60
2019-02-07T03:24:40.842Z,13.70
2019-02-07T03:25:40.836Z,12.90
2019-02-07T03:26:40.825Z,11.20
2019-02-07T03:27:40.815Z,12.80
2019-02-07T03:28:40.800Z,12.40
2019-02-07T03:29:40.795Z,12.20
2019-02-07T03:30:40.789Z,12.10
2019-02-07T03:31:40.771Z,12.90
2019-02-07T03:32:40.769Z,12.80
2019-02-07T03:33:40.757Z,13.00
2019-02-07T03:34:40.735Z,13.40
2019-02-07T03:35:40.734Z,12.80
2019-02-07T03:36:40.730Z,12.10
2019-02-07T03:37:40.716Z,12.30
2019-02-07T03:38:40.693Z,11.60
2019-02-07T03:39:40.695Z,12.70
2019-02-07T03:40:40.678Z,13.00
2019-02-07T03:41:40.675Z,13.00
2019-02-07T03:42:40.661Z,13.40
2019-02-07T03:43:40.653Z,13.00
2019-02-07T03:44:40.640Z,12.90
2019-02-07T03:45:40.635Z,12.20
2019-02-07T03:46:40.613Z,14.00
2019-02-07T03:47:40.610Z,11.80
2019-02-07T03:48:40.605Z,11.40
2019-02-07T03:49:40.592Z,12.30
2019-02-07T03:50:40.586Z,13.90
2019-02-07T03:51:40.570Z,12.50
2019-02-07T03:52:40.665Z,10.90
2019-02-07T03:53:40.554Z,12.40
2019-02-07T03:54:40.534Z,11.60
2019-02-07T03:55:40.536Z,11.70
2019-02-07T03:56:40.519Z,11.30
2019-02-07T03:57:40.509Z,13.40
2019-02-07T03:58:40.498Z,11.40
2019-02-07T03:59:40.488Z,11.70
2019-02-07T04:00:40.477Z,12.40
2019-02-07T04:01:40.464Z,12.40
2019-02-07T04:02:40.814Z,12.80
2019-02-07T04:03:40.446Z,11.00
2019-02-07T04:04:40.434Z,11.60
2019-02-07T04:05:40.424Z,12.80
2019-02-07T04:06:40.414Z,11.90
2019-02-07T04:07:40.408Z,10.70
2019-02-07T04:08:40.394Z,13.60
2019-02-07T04:09:40.385Z,11.60
2019-02-07T04:10:43.082Z,11.20
2019-02-07T04:11:40.361Z,11.60
2019-02-07T04:12:40.354Z,11.00
2019-02-07T04:13:40.345Z,12.30
2019-02-07T04:14:40.332Z,12.00
2019-02-07T04:15:40.324Z,11.60
2019-02-07T04:16:40.313Z,12.50
2019-02-07T04:17:40.300Z,12.20
2019-02-07T04:18:40.296Z,11.80
2019-02-07T04:19:40.281Z,12.10
2019-02-07T04:20:40.271Z,12.30
2019-02-07T04:21:40.259Z,12.30
2019-02-07T04:22:40.250Z,12.20
2019-02-07T04:23:40.239Z,11.00
2019-02-07T04:24:40.229Z,12.00
2019-02-07T04:25:40.217Z,12.50
2019-02-07T04:26:40.218Z,11.90
2019-02-07T04:27:40.189Z,12.40
2019-02-07T04:28:40.186Z,11.10
2019-02-07T04:29:40.180Z,12.40
2019-02-07T04:30:40.166Z,11.80
2019-02-07T04:31:40.160Z,12.00
2019-02-07T04:32:40.145Z,11.70
2019-02-07T04:33:40.138Z,11.70
2019-02-07T04:34:40.127Z,11.30
2019-02-07T04:35:40.119Z,12.10
2019-02-07T04:36:40.102Z,12.20
2019-02-07T04:37:40.091Z,13.40
2019-02-07T04:38:40.081Z,11.40
2019-02-07T04:39:40.078Z,12.20
2019-02-07T04:40:40.059Z,12.30
2019-02-07T04:41:40.049Z,11.20
2019-02-07T04:42:40.067Z,12.30
2019-02-07T04:43:40.031Z,12.50
2019-02-07T04:44:40.021Z,11.20
2019-02-07T04:45:40.005Z,12.30
2019-02-07T04:46:39.998Z,11.10
2019-02-07T04:47:39.991Z,11.50
2019-02-07T04:48:39.984Z,11.70
2019-02-07T04:49:39.970Z,12.00
2019-02-07T04:50:39.971Z,11.00
2019-02-07T04:51:39.946Z,11.80
2019-02-07T04:52:39.934Z,12.40
2019-02-07T04:53:39.926Z,12.10
2019-02-07T04:54:39.913Z,12.00
2019-02-07T04:55:39.904Z,11.50
2019-02-07T04:56:39.893Z,12.20
2019-02-07T04:57:39.882Z,11.70
2019-02-07T04:58:39.869Z,12.40
2019-02-07T04:59:39.863Z,12.40
2019-02-07T05:00:39.852Z,12.50
2019-02-07T05:01:39.838Z,11.30
2019-02-07T05:02:39.830Z,12.30
2019-02-07T05:03:39.819Z,12.00
2019-02-07T05:04:39.810Z,11.70
2019-02-07T05:05:39.801Z,10.90
2019-02-07T05:06:39.787Z,14.40
2019-02-07T05:07:39.774Z,10.80
2019-02-07T05:08:39.764Z,10.70
2019-02-07T05:09:39.753Z,11.10
2019-02-07T05:10:39.745Z,12.10
2019-02-07T05:11:39.743Z,12.50
2019-02-07T05:12:39.722Z,11.60
2019-02-07T05:13:39.709Z,12.90
2019-02-07T05:14:39.698Z,11.40
2019-02-07T05:15:39.688Z,12.60
2019-02-07T05:16:43.567Z,11.40
2019-02-07T05:17:39.667Z,11.20
2019-02-07T05:18:39.659Z,12.80
2019-02-07T05:19:39.643Z,11.70
2019-02-07T05:20:39.638Z,12.90
2019-02-07T05:21:39.626Z,10.80
2019-02-07T05:22:39.613Z,11.60
2019-02-07T05:23:39.607Z,10.90
2019-02-07T05:24:39.591Z,10.90
2019-02-07T05:25:39.582Z,11.10
2019-02-07T05:26:39.574Z,12.10
2019-02-07T05:27:39.566Z,11.40
2019-02-07T05:28:39.548Z,11.80
2019-02-07T05:29:39.546Z,11.70
2019-02-07T05:30:39.524Z,11.10
2019-02-07T05:31:39.521Z,12.20
2019-02-07T05:32:39.505Z,11.10
2019-02-07T05:33:39.495Z,11.60
2019-02-07T05:34:39.487Z,10.60
2019-02-07T05:35:39.483Z,12.10
2019-02-07T05:36:42.190Z,12.00
2019-02-07T05:37:39.454Z,12.50
2019-02-07T05:38:39.440Z,10.40
2019-02-07T05:39:39.435Z,10.30
2019-02-07T05:40:39.419Z,9.80
2019-02-07T05:41:39.409Z,10.80
2019-02-07T05:42:39.398Z,11.50
2019-02-07T05:43:39.391Z,12.60
2019-02-07T05:44:39.374Z,10.40
2019-02-07T05:45:39.368Z,10.30
2019-02-07T05:46:50.492Z,10.30
2019-02-07T05:47:39.344Z,11.00
2019-02-07T05:48:39.336Z,10.70
2019-02-07T05:49:39.344Z,10.90
2019-02-07T05:50:39.310Z,11.30
2019-02-07T05:51:39.306Z,11.60
2019-02-07T05:52:39.289Z,10.50
2019-02-07T05:53:39.275Z,10.50
2019-02-07T05:54:39.294Z,11.20
2019-02-07T05:55:39.259Z,11.00
2019-02-07T05:56:39.250Z,10.80
2019-02-07T05:57:39.236Z,9.70
2019-02-07T05:58:39.225Z,10.90
2019-02-07T05:59:39.209Z,11.20
2019-02-07T06:00:39.202Z,10.90
2019-02-07T06:01:39.192Z,11.10
2019-02-07T06:02:39.182Z,12.40
2019-02-07T06:03:39.171Z,10.80
2019-02-07T06:04:39.156Z,11.50
2019-02-07T06:05:39.153Z,10.70
2019-02-07T06:06:39.140Z,10.90
2019-02-07T06:07:39.129Z,11.50
2019-02-07T06:08:39.118Z,10.10
2019-02-07T06:09:39.101Z,10.00
2019-02-07T06:10:39.102Z,10.50
2019-02-07T06:11:39.080Z,11.00
2019-02-07T06:12:39.072Z,10.10
2019-02-07T06:13:39.062Z,10.90
2019-02-07T06:14:39.054Z,10.90
2019-02-07T06:15:39.040Z,10.50
2019-02-07T06:16:39.028Z,10.80
2019-02-07T06:17:39.019Z,10.20
2019-02-07T06:18:39.002Z,10.60
2019-02-07T06:19:38.996Z,10.60
2019-02-07T06:20:38.987Z,11.30
2019-02-07T06:21:38.974Z,10.70
2019-02-07T06:22:38.968Z,12.70
2019-02-07T06:23:38.957Z,10.90
2019-02-07T06:24:38.939Z,11.90
2019-02-07T06:25:38.926Z,10.90
2019-02-07T06:26:38.918Z,11.50
2019-02-07T06:27:38.987Z,11.60
2019-02-07T06:28:38.896Z,10.30
2019-02-07T06:29:38.883Z,10.30
2019-02-07T06:30:38.881Z,11.70
2019-02-07T06:31:38.874Z,9.60
2019-02-07T06:32:38.853Z,11.50
2019-02-07T06:33:38.844Z,10.50
2019-02-07T06:34:38.840Z,12.10
2019-02-07T06:35:38.823Z,11.30
2019-02-07T06:36:38.813Z,10.80
2019-02-07T06:37:38.803Z,11.60
2019-02-07T06:38:38.804Z,10.00
2019-02-07T06:39:38.789Z,12.00
2019-02-07T06:40:38.763Z,10.80
2019-02-07T06:41:38.758Z,11.10
2019-02-07T06:42:38.747Z,12.20
2019-02-07T06:43:38.745Z,9.70
2019-02-07T06:44:38.723Z,10.90
2019-02-07T06:45:38.718Z,11.80
2019-02-07T06:46:38.699Z,10.70
2019-02-07T06:47:38.691Z,11.20
2019-02-07T06:48:38.673Z,11.30
2019-02-07T06:49:38.670Z,10.80
2019-02-07T06:50:38.657Z,10.40
2019-02-07T06:51:38.645Z,9.70
2019-02-07T06:52:38.637Z,11.90
2019-02-07T06:53:38.622Z,10.30
2019-02-07T06:54:38.705Z,10.40
2019-02-07T06:55:38.596Z,10.40
2019-02-07T06:56:38.592Z,13.90
2019-02-07T06:57:38.577Z,10.40
2019-02-07T06:58:38.568Z,11.10
2019-02-07T06:59:38.561Z,11.10
2019-02-07T07:00:38.546Z,10.20
2019-02-07T07:01:38.538Z,12.40
2019-02-07T07:02:38.525Z,11.50
2019-02-07T07:03:38.514Z,10.10
2019-02-07T07:04:38.502Z,9.70
2019-02-07T07:05:38.491Z,10.20
2019-02-07T07:06:38.480Z,11.00
2019-02-07T07:07:38.480Z,10.30
2019-02-07T07:08:38.458Z,11.40
2019-02-07T07:09:38.445Z,10.30
2019-02-07T07:10:38.438Z,11.50
2019-02-07T07:11:38.426Z,11.10
2019-02-07T07:12:38.412Z,11.20
2019-02-07T07:13:38.402Z,13.00
2019-02-07T07:14:38.393Z,10.40
2019-02-07T07:15:40.269Z,10.30
2019-02-07T07:16:38.359Z,10.90
2019-02-07T07:17:38.354Z,10.70
2019-02-07T07:18:38.348Z,12.20
2019-02-07T07:19:38.341Z,12.10
2019-02-07T07:20:38.334Z,13.80
2019-02-07T07:21:38.321Z,11.90
2019-02-07T07:22:38.304Z,12.40
2019-02-07T07:23:38.298Z,13.80
2019-02-07T07:24:38.283Z,12.50
2019-02-07T07:25:38.271Z,12.30
2019-02-07T07:26:38.266Z,12.10
2019-02-07T07:27:38.287Z,13.60
2019-02-07T07:28:38.241Z,11.90
2019-02-07T07:29:38.228Z,12.90
2019-02-07T07:30:38.223Z,13.00
2019-02-07T07:31:38.206Z,12.50
2019-02-07T07:32:38.213Z,12.70
2019-02-07T07:33:38.184Z,11.80
2019-02-07T07:34:38.183Z,11.30
2019-02-07T07:35:38.165Z,14.70
2019-02-07T07:36:38.154Z,13.00
2019-02-07T07:37:39.139Z,14.10
2019-02-07T07:38:38.133Z,14.10
2019-02-07T07:39:38.122Z,15.90
2019-02-07T07:40:38.110Z,12.70
2019-02-07T07:41:38.096Z,13.30
2019-02-07T07:42:38.090Z,14.00
2019-02-07T07:43:38.080Z,13.80
2019-02-07T07:44:38.063Z,13.70
2019-02-07T07:45:38.053Z,14.10
2019-02-07T07:46:38.045Z,14.00
2019-02-07T07:47:38.037Z,13.60
2019-02-07T07:48:38.026Z,11.10
2019-02-07T07:49:38.019Z,12.40
2019-02-07T07:50:38.007Z,12.00
2019-02-07T07:51:37.997Z,12.90
2019-02-07T07:52:37.974Z,11.90
2019-02-07T07:53:37.973Z,12.90
2019-02-07T07:54:37.966Z,11.00
2019-02-07T07:55:37.952Z,10.80
2019-02-07T07:56:37.941Z,11.10
2019-02-07T07:57:37.929Z,12.60
2019-02-07T07:58:37.944Z,12.40
2019-02-07T07:59:37.909Z,11.50
2019-02-07T08:00:37.908Z,11.70
2019-02-07T08:01:37.887Z,11.70
2019-02-07T08:02:37.880Z,11.70
2019-02-07T08:03:37.864Z,12.00
2019-02-07T08:04:37.860Z,13.20
2019-02-07T08:05:37.847Z,12.30
2019-02-07T08:06:37.838Z,11.80
2019-02-07T08:07:37.824Z,12.50
2019-02-07T08:08:37.809Z,13.10
2019-02-07T08:09:37.802Z,13.40
2019-02-07T08:10:37.792Z,13.30
2019-02-07T08:11:37.778Z,11.90
2019-02-07T08:12:37.774Z,13.20
2019-02-07T08:13:37.765Z,13.30
2019-02-07T08:14:37.753Z,14.90
2019-02-07T08:15:37.743Z,12.00
2019-02-07T08:16:37.737Z,13.30
2019-02-07T08:17:47.163Z,12.20
2019-02-07T08:18:37.711Z,12.30
2019-02-07T08:19:37.701Z,13.00
2019-02-07T08:20:37.687Z,11.40
2019-02-07T08:21:37.687Z,14.90
2019-02-07T08:22:37.674Z,13.90
2019-02-07T08:23:37.658Z,15.30
2019-02-07T08:24:37.655Z,14.60
2019-02-07T08:25:37.632Z,12.80
2019-02-07T08:26:37.631Z,13.70
2019-02-07T08:27:37.615Z,15.60
2019-02-07T08:28:37.604Z,12.60
2019-02-07T08:29:37.588Z,13.50
2019-02-07T08:30:37.587Z,13.60
2019-02-07T08:31:37.572Z,14.70
2019-02-07T08:32:37.565Z,13.20
2019-02-07T08:33:39.306Z,12.20
2019-02-07T08:34:37.547Z,13.60
2019-02-07T08:35:37.538Z,12.60
2019-02-07T08:36:37.529Z,12.90
2019-02-07T08:37:37.513Z,13.50
2019-02-07T08:38:37.515Z,12.30
2019-02-07T08:39:37.491Z,13.10
2019-02-07T08:40:37.482Z,14.30
2019-02-07T08:41:37.468Z,12.80
2019-02-07T08:42:37.465Z,12.60
2019-02-07T08:43:37.452Z,12.80
2019-02-07T08:44:37.441Z,14.00
2019-02-07T08:45:37.436Z,12.20
2019-02-07T08:46:37.417Z,13.10
2019-02-07T08:47:37.411Z,13.20
2019-02-07T08:48:37.399Z,12.30
2019-02-07T08:49:37.394Z,14.00
2019-02-07T08:50:37.379Z,14.10
2019-02-07T08:51:37.374Z,13.20
2019-02-07T08:52:37.362Z,13.10
2019-02-07T08:53:37.350Z,13.40
2019-02-07T08:54:37.341Z,11.40
2019-02-07T08:55:37.335Z,12.60
2019-02-07T08:56:37.318Z,13.40
2019-02-07T08:57:37.310Z,11.70
2019-02-07T08:58:37.302Z,13.20
2019-02-07T08:59:37.292Z,13.50
2019-02-07T09:00:37.277Z,14.60
2019-02-07T09:01:37.474Z,12.40
2019-02-07T09:02:37.259Z,13.50
2019-02-07T09:03:37.250Z,12.60
2019-02-07T09:04:37.239Z,13.60
2019-02-07T09:05:37.227Z,11.80
2019-02-07T09:06:37.217Z,11.90
2019-02-07T09:07:37.210Z,11.80
2019-02-07T09:08:37.198Z,13.60
2019-02-07T09:09:37.183Z,12.20
2019-02-07T09:10:37.176Z,13.00
2019-02-07T09:11:37.166Z,12.80
2019-02-07T09:12:37.156Z,14.90
2019-02-07T09:13:37.143Z,14.10
2019-02-07T09:14:37.138Z,13.50
2019-02-07T09:15:37.129Z,14.20
2019-02-07T09:16:37.114Z,14.10
2019-02-07T09:17:37.102Z,15.00
2019-02-07T09:18:37.092Z,13.20
2019-02-07T09:19:37.086Z,14.10
2019-02-07T09:20:37.077Z,14.30
2019-02-07T09:21:37.072Z,13.90
2019-02-07T09:22:37.051Z,14.30
2019-02-07T09:23:37.045Z,15.30
2019-02-07T09:24:37.031Z,14.70
2019-02-07T09:25:37.835Z,15.20
2019-02-07T09:26:37.028Z,16.70
2019-02-07T09:27:37.004Z,13.80
2019-02-07T09:28:36.993Z,15.10
2019-02-07T09:29:36.983Z,15.10
2019-02-07T09:30:36.974Z,14.40
2019-02-07T09:31:36.963Z,14.90
2019-02-07T09:32:36.953Z,13.40
2019-02-07T09:33:36.946Z,13.70
2019-02-07T09:34:36.931Z,17.30
2019-02-07T09:35:36.926Z,13.70
2019-02-07T09:36:36.906Z,13.10
2019-02-07T09:37:36.905Z,12.30
2019-02-07T09:38:36.897Z,14.30
2019-02-07T09:39:36.895Z,14.10
2019-02-07T09:40:36.875Z,12.90
2019-02-07T09:41:36.865Z,12.90
2019-02-07T09:42:36.856Z,12.20
2019-02-07T09:43:36.849Z,13.50
2019-02-07T09:44:36.836Z,14.40
2019-02-07T09:45:36.827Z,12.40
2019-02-07T09:46:36.821Z,13.30
2019-02-07T09:47:36.810Z,12.70
2019-02-07T09:48:36.798Z,13.00
2019-02-07T09:49:36.793Z,12.00
2019-02-07T09:50:36.782Z,12.00
2019-02-07T09:51:36.772Z,10.90
2019-02-07T09:52:36.764Z,13.10
2019-02-07T09:53:36.756Z,13.00
2019-02-07T09:54:36.744Z,12.50
2019-02-07T09:55:36.735Z,11.80
2019-02-07T09:56:36.722Z,10.70
2019-02-07T09:57:36.716Z,12.00
2019-02-07T09:58:36.706Z,11.00
2019-02-07T09:59:36.697Z,11.20
2019-02-07T10:00:36.688Z,11.50
2019-02-07T10:01:36.676Z,12.20
2019-02-07T10:02:36.667Z,12.00
2019-02-07T10:03:36.659Z,12.00
2019-02-07T10:04:36.650Z,12.00
2019-02-07T10:05:36.642Z,11.80
2019-02-07T10:06:36.632Z,11.40
2019-02-07T10:07:36.622Z,13.10
2019-02-07T10:08:36.612Z,13.10
2019-02-07T10:09:36.602Z,13.90
2019-02-07T10:10:36.596Z,12.40
2019-02-07T10:11:36.585Z,10.90
2019-02-07T10:12:36.575Z,11.40
2019-02-07T10:13:36.566Z,11.00
2019-02-07T10:14:36.555Z,12.90
2019-02-07T10:15:36.551Z,11.70
2019-02-07T10:16:36.542Z,10.40
2019-02-07T10:17:36.537Z,11.50
2019-02-07T10:18:36.523Z,12.20
2019-02-07T10:19:36.514Z,13.70
2019-02-07T10:20:37.421Z,13.00
2019-02-07T10:21:36.495Z,12.10
2019-02-07T10:22:36.482Z,11.80
2019-02-07T10:23:36.475Z,12.30
2019-02-07T10:24:36.466Z,12.30
2019-02-07T10:25:36.467Z,12.10
2019-02-07T10:26:36.448Z,12.50
2019-02-07T10:27:36.440Z,12.40
2019-02-07T10:28:36.428Z,11.40
2019-02-07T10:29:36.419Z,13.20
2019-02-07T10:30:36.411Z,11.40
2019-02-07T10:31:36.403Z,12.20
2019-02-07T10:32:36.382Z,12.40
2019-02-07T10:33:36.380Z,12.80
2019-02-07T10:34:36.376Z,14.40
2019-02-07T10:35:36.366Z,12.40
2019-02-07T10:36:36.353Z,14.70
2019-02-07T10:37:36.347Z,13.20
2019-02-07T10:38:36.337Z,12.60
2019-02-07T10:39:36.329Z,11.50
2019-02-07T10:40:36.322Z,12.00
2019-02-07T10:41:36.313Z,12.70
2019-02-07T10:42:36.304Z,12.90
2019-02-07T10:43:36.291Z,11.80
2019-02-07T10:44:36.284Z,13.80
2019-02-07T10:45:36.279Z,12.00
2019-02-07T10:46:36.263Z,13.50
2019-02-07T10:47:36.256Z,12.30
2019-02-07T10:48:44.268Z,11.30
2019-02-07T10:49:36.237Z,10.80
2019-02-07T10:50:36.228Z,13.60
2019-02-07T10:51:36.220Z,14.90
2019-02-07T10:52:36.212Z,11.20
2019-02-07T10:53:36.208Z,11.00
2019-02-07T10:54:36.193Z,12.50
2019-02-07T10:55:36.186Z,12.20
2019-02-07T10:56:36.176Z,11.70
2019-02-07T10:57:36.166Z,11.80
2019-02-07T10:58:36.161Z,12.10
2019-02-07T10:59:36.149Z,10.90
2019-02-07T11:00:36.142Z,11.60
2019-02-07T11:01:36.135Z,11.40
2019-02-07T11:02:36.124Z,11.70
2019-02-07T11:03:36.114Z,11.30
2019-02-07T11:04:36.106Z,13.50
2019-02-07T11:05:36.098Z,12.20
2019-02-07T11:06:36.087Z,11.90
2019-02-07T11:07:36.088Z,11.70
2019-02-07T11:08:36.071Z,12.30
2019-02-07T11:09:36.065Z,11.10
2019-02-07T11:10:36.073Z,12.10
2019-02-07T11:11:36.047Z,12.40
2019-02-07T11:12:36.038Z,12.10
2019-02-07T11:13:36.030Z,13.00
2019-02-07T11:14:36.030Z,11.40
2019-02-07T11:15:36.013Z,12.50
2019-02-07T11:16:36.003Z,12.10
2019-02-07T11:17:36.000Z,12.50
2019-02-07T11:18:35.988Z,12.40
2019-02-07T11:19:35.981Z,11.90
2019-02-07T11:20:35.981Z,11.10
2019-02-07T11:21:35.964Z,11.50
2019-02-07T11:22:35.954Z,11.80
2019-02-07T11:23:35.947Z,13.30
2019-02-07T11:24:35.937Z,13.50
2019-02-07T11:25:35.929Z,10.30
2019-02-07T11:26:35.918Z,11.30
2019-02-07T11:27:35.915Z,12.00
2019-02-07T11:28:35.907Z,11.10
2019-02-07T11:29:35.896Z,10.40
2019-02-07T11:30:35.888Z,10.60
2019-02-07T11:31:35.881Z,10.00
2019-02-07T11:32:35.876Z,10.90
2019-02-07T11:33:35.866Z,12.40
2019-02-07T11:34:35.854Z,12.30
2019-02-07T11:35:35.848Z,11.30
2019-02-07T11:36:35.842Z,11.10
2019-02-07T11:37:35.835Z,12.00
2019-02-07T11:38:35.826Z,9.90
2019-02-07T11:39:35.811Z,11.50
2019-02-07T11:40:35.808Z,10.00
2019-02-07T11:41:35.807Z,11.40
2019-02-07T11:42:35.794Z,11.60
2019-02-07T11:43:35.785Z,11.20
2019-02-07T11:44:35.775Z,10.90
2019-02-07T11:45:35.769Z,10.60
2019-02-07T11:46:37.616Z,10.70
2019-02-07T11:47:35.754Z,11.20
2019-02-07T11:48:35.743Z,10.90
2019-02-07T11:49:35.737Z,10.70
2019-02-07T11:50:35.733Z,10.80
2019-02-07T11:51:35.721Z,10.90
2019-02-07T11:52:35.713Z,10.50
2019-02-07T11:53:35.707Z,12.40
2019-02-07T11:54:35.701Z,13.40
2019-02-07T11:55:35.696Z,11.00
2019-02-07T11:56:35.684Z,11.20
2019-02-07T11:57:35.675Z,10.30
2019-02-07T11:58:35.670Z,9.60
2019-02-07T11:59:35.667Z,11.00
2019-02-07T12:00:35.664Z,10.80
2019-02-07T12:01:35.648Z,9.80
2019-02-07T12:02:35.638Z,10.30
2019-02-07T12:03:35.637Z,8.30
2019-02-07T12:04:35.620Z,10.00
2019-02-07T12:05:35.617Z,8.60
2019-02-07T12:06:35.608Z,9.10
2019-02-07T12:07:35.601Z,9.30
2019-02-07T12:08:35.590Z,7.80
2019-02-07T12:09:35.587Z,8.70
2019-02-07T12:10:35.580Z,10.20
2019-02-07T12:11:35.568Z,8.50
2019-02-07T12:12:35.564Z,9.10
2019-02-07T12:13:35.553Z,8.70
2019-02-07T12:14:35.600Z,9.60
2019-02-07T12:15:35.541Z,9.00
2019-02-07T12:16:35.534Z,9.60
2019-02-07T12:17:35.524Z,9.00
2019-02-07T12:18:35.517Z,10.00
2019-02-07T12:19:35.511Z,8.00
2019-02-07T12:20:35.503Z,10.20
2019-02-07T12:21:35.497Z,12.30
2019-02-07T12:22:37.374Z,9.40
2019-02-07T12:23:35.479Z,9.60
2019-02-07T12:24:35.473Z,10.70
2019-02-07T12:25:35.467Z,10.40
2019-02-07T12:26:35.458Z,9.10
2019-02-07T12:27:35.452Z,9.90
2019-02-07T12:28:36.147Z,9.30
2019-02-07T12:29:35.439Z,9.60
2019-02-07T12:30:35.428Z,10.10
2019-02-07T12:31:35.421Z,9.50
2019-02-07T12:32:35.413Z,10.40
2019-02-07T12:33:35.406Z,9.70
2019-02-07T12:34:35.399Z,8.90
2019-02-07T12:35:35.391Z,9.40
2019-02-07T12:36:35.384Z,9.40
2019-02-07T12:37:35.376Z,9.90
2019-02-07T12:38:35.367Z,9.10
2019-02-07T12:39:35.360Z,8.80
2019-02-07T12:40:35.352Z,10.50
2019-02-07T12:41:35.344Z,10.30
2019-02-07T12:42:35.339Z,10.30
2019-02-07T12:43:35.331Z,9.00
2019-02-07T12:44:35.325Z,10.20
2019-02-07T12:45:35.315Z,9.60
2019-02-07T12:46:35.313Z,9.90
2019-02-07T12:47:35.300Z,9.70
2019-02-07T12:48:35.294Z,10.00
2019-02-07T12:49:35.285Z,10.90
2019-02-07T12:50:35.280Z,10.10
2019-02-07T12:51:35.268Z,9.20
2019-02-07T12:52:35.261Z,9.20
2019-02-07T12:53:35.260Z,10.10
2019-02-07T12:54:35.245Z,9.50